Time;durP1;ratioP1;P1;durP2;ratioP2;P2;SDS_P1;SDS_P2;PMS_P1;PMS_P2;Temp;Humidity;BMP_temperature;BMP_pressure;BME280_temperature;BME280_humidity;BME280_pressure;Samples;Min_cycle;Max_cycle;Signal;HPM_P1;HPM_P2
2021/12/06 00:01:55;;;;;;;0.10;0.10;;;3.10;99.90;;;2.77;100.00;99834.50;5004079;28;20595;-75
2021/12/06 00:04:29;;;;;;;0.10;0.10;;;3.10;99.90;;;2.79;100.00;99845.88;4985409;28;20222;-76
2021/12/06 00:07:17;;;;;;;0.20;0.20;;;3.00;99.90;;;2.80;100.00;99845.03;4988600;28;20207;-76
2021/12/06 00:09:45;;;;;;;0.10;0.10;;;3.10;99.90;;;2.78;100.00;99846.72;4989512;28;20448;-76
2021/12/06 00:12:15;;;;;;;0.10;0.10;;;3.00;99.90;;;2.75;100.00;99835.28;4974202;28;20243;-75
2021/12/06 00:14:44;;;;;;;0.10;0.10;;;3.00;99.90;;;2.71;100.00;99836.91;4974389;28;20663;-75
2021/12/06 00:17:16;;;;;;;0.10;0.10;;;3.00;99.90;;;2.70;100.00;99842.09;4976508;28;20208;-75
2021/12/06 00:19:45;;;;;;;0.10;0.10;;;3.00;99.90;;;2.69;100.00;99840.31;4980491;28;20216;-75
2021/12/06 00:22:22;;;;;;;0.10;0.10;;;3.00;99.90;;;2.67;100.00;99842.88;4997931;23;20239;-76
2021/12/06 00:24:52;;;;;;;0.10;0.10;;;2.90;99.90;;;2.63;100.00;99837.53;4959022;28;20204;-75
2021/12/06 00:27:21;;;;;;;0.10;0.10;;;2.90;99.90;;;2.60;100.00;99842.63;4959306;28;20207;-75
2021/12/06 00:29:51;;;;;;;0.10;0.10;;;3.00;99.90;;;2.61;100.00;99842.69;4958019;28;20216;-75
2021/12/06 00:32:20;;;;;;;0.20;0.20;;;3.10;99.90;;;2.61;100.00;99855.75;4951089;28;20228;-75
2021/12/06 00:34:48;;;;;;;0.10;0.10;;;3.00;99.90;;;2.61;100.00;99853.13;4940501;28;20209;-75
2021/12/06 00:37:23;;;;;;;0.10;0.10;;;2.90;99.90;;;2.62;100.00;99870.56;4969033;28;20201;-75
2021/12/06 00:39:55;;;;;;;0.10;0.10;;;2.90;99.90;;;2.62;100.00;99857.53;4954285;28;20236;-76
2021/12/06 00:42:28;;;;;;;0.10;0.10;;;2.90;99.90;;;2.62;100.00;99867.06;4966024;28;20232;-75
2021/12/06 00:44:57;;;;;;;0.10;0.10;;;2.90;99.90;;;2.63;100.00;99874.97;4953472;28;20209;-75
2021/12/06 00:47:25;;;;;;;0.10;0.10;;;2.90;99.90;;;2.63;100.00;99877.56;4952085;28;20357;-76
2021/12/06 00:49:54;;;;;;;0.10;0.10;;;2.90;99.90;;;2.63;100.00;99876.69;4969110;28;20213;-75
2021/12/06 00:52:23;;;;;;;0.10;0.10;;;2.90;99.90;;;2.64;100.00;99881.94;4944724;28;20227;-75
2021/12/06 00:54:51;;;;;;;0.10;0.10;;;2.90;99.90;;;2.64;100.00;99887.16;4941970;28;20209;-75
2021/12/06 00:57:20;;;;;;;0.10;0.10;;;2.90;99.90;;;2.64;100.00;99884.56;4940000;28;20217;-76
2021/12/06 00:59:51;;;;;;;0.10;0.10;;;2.90;99.90;;;2.66;100.00;99892.44;4962062;28;20590;-75
2021/12/06 01:02:19;;;;;;;0.10;0.10;;;3.00;99.90;;;2.65;100.00;99893.28;4938706;28;20220;-75
2021/12/06 01:04:51;;;;;;;0.10;0.10;;;3.10;99.90;;;2.61;100.00;99888.78;4972779;28;20208;-76
2021/12/06 01:07:19;;;;;;;0.10;0.10;;;3.00;99.90;;;2.58;100.00;99895.66;4955648;28;20297;-74
2021/12/06 01:09:47;;;;;;;0.10;0.10;;;2.90;99.90;;;2.54;100.00;99891.19;4955112;28;20244;-76
2021/12/06 01:12:16;;;;;;;0.10;0.10;;;2.80;99.90;;;2.53;100.00;99894.63;4954414;28;20255;-76
2021/12/06 01:14:45;;;;;;;0.10;0.10;;;2.70;99.90;;;2.49;100.00;99895.38;4970013;28;20213;-75
2021/12/06 01:17:13;;;;;;;0.10;0.10;;;2.90;99.90;;;2.48;100.00;99904.03;4972672;28;20216;-75
2021/12/06 01:19:43;;;;;;;0.10;0.10;;;2.80;99.90;;;2.46;100.00;99899.59;4934916;28;20698;-75
2021/12/06 01:24:56;;;;;;;0.10;0.10;;;2.70;99.90;;;2.35;100.00;99914.00;4965451;28;20200;-75
2021/12/06 01:28:02;;;;;;;0.10;0.10;;;2.60;99.90;;;2.25;100.00;99912.81;4969232;28;20204;-75
2021/12/06 01:41:07;;;;;;;0.10;0.10;;;2.40;99.90;;;2.14;100.00;99925.50;4955348;28;20212;-75
2021/12/06 01:43:36;;;;;;;0.10;0.10;;;2.40;99.90;;;2.12;100.00;99932.38;4950412;28;20225;-75
2021/12/06 01:46:06;;;;;;;0.10;0.10;;;2.40;99.90;;;2.15;100.00;99942.94;4921305;28;20220;-75
2021/12/06 01:48:34;;;;;;;0.10;0.10;;;2.40;99.90;;;2.15;100.00;99942.94;4951855;28;20211;-75
2021/12/06 01:51:02;;;;;;;0.10;0.10;;;2.50;99.90;;;2.13;100.00;99944.59;4936431;28;20207;-75
2021/12/06 01:53:30;;;;;;;0.10;0.10;;;2.40;99.90;;;2.13;100.00;99947.19;4936706;28;20224;-75
2021/12/06 01:55:59;;;;;;;0.10;0.10;;;2.40;99.90;;;2.13;100.00;99954.13;4921369;28;20209;-75
2021/12/06 01:58:27;;;;;;;0.10;0.10;;;2.40;99.90;;;2.12;100.00;99949.75;4936301;28;20224;-75
2021/12/06 02:00:55;;;;;;;0.10;0.10;;;2.40;99.90;;;2.09;100.00;99949.66;4931433;28;20213;-75
2021/12/06 02:03:31;;;;;;;0.10;0.10;;;2.40;99.90;;;2.05;100.00;99946.03;4952574;28;20239;-75
2021/12/06 02:06:00;;;;;;;0.10;0.10;;;2.60;99.90;;;2.03;100.00;99949.44;4938624;28;20205;-75
2021/12/06 02:08:29;;;;;;;0.10;0.10;;;2.30;99.90;;;1.99;100.00;99956.25;4936312;28;20208;-77
2021/12/06 02:11:02;;;;;;;0.10;0.10;;;2.40;99.90;;;1.95;100.00;99954.38;4952023;28;20201;-75
2021/12/06 02:14:05;;;;;;;0.10;0.10;;;2.20;99.90;;;1.93;100.00;99956.03;4948364;28;20209;-75
2021/12/06 02:16:31;;;;;;;0.10;0.10;;;2.20;99.90;;;1.89;100.00;99952.44;4953895;28;20589;-76
2021/12/06 02:19:04;;;;;;;0.10;0.10;;;2.10;99.90;;;1.86;100.00;99956.66;4969459;28;20213;-75
2021/12/06 02:21:39;;;;;;;0.10;0.10;;;2.30;99.90;;;1.81;100.00;99958.22;4968474;28;20220;-75
2021/12/06 02:24:10;;;;;;;0.20;0.20;;;2.10;99.90;;;1.79;100.00;99954.66;4934728;28;20713;-75
2021/12/06 02:26:41;;;;;;;0.10;0.10;;;2.00;99.90;;;1.76;100.00;99954.56;4979530;28;20212;-76
2021/12/06 02:29:11;;;;;;;0.15;0.15;;;2.00;99.90;;;1.69;100.00;99956.06;4951963;28;20220;-75
2021/12/06 02:31:39;;;;;;;0.10;0.10;;;1.90;99.90;;;1.67;100.00;99960.31;4952708;28;20227;-76
2021/12/06 02:34:08;;;;;;;0.10;0.10;;;2.00;99.90;;;1.71;100.00;99963.94;4937926;28;20213;-75
2021/12/06 02:36:36;;;;;;;0.10;0.10;;;1.90;99.90;;;1.70;100.00;99972.56;4936573;28;20217;-75
2021/12/06 02:39:14;;;;;;;0.03;0.03;;;1.90;99.90;;;1.66;100.00;99976.78;4967773;28;20208;-75
2021/12/06 02:41:42;;;;;;;0.10;0.10;;;1.90;99.90;;;1.64;100.00;99981.06;4936705;28;20563;-76
2021/12/06 02:44:11;;;;;;;0.10;0.10;;;1.90;99.90;;;1.62;100.00;99985.31;4952675;28;20229;-75
2021/12/06 02:46:39;;;;;;;0.08;0.08;;;1.90;99.90;;;1.65;100.00;99989.75;4952870;28;20212;-75
2021/12/06 02:49:16;;;;;;;0.22;0.22;;;1.90;99.90;;;1.66;100.00;99989.81;4968951;28;20204;-75
2021/12/06 02:51:53;;;;;;;0.10;0.10;;;1.90;99.90;;;1.67;100.00;99993.31;4973684;28;20212;-76
2021/12/06 02:54:22;;;;;;;0.10;0.10;;;1.90;99.90;;;1.67;100.00;99993.31;4959814;28;20595;-75
2021/12/06 02:59:25;;;;;;;0.10;0.10;;;1.90;99.90;;;1.65;100.00;100002.78;4967121;28;20217;-75
2021/12/06 03:01:59;;;;;;;0.10;0.10;;;1.90;99.90;;;1.66;100.00;100005.47;4982549;28;20228;-75
2021/12/06 03:04:30;;;;;;;0.47;0.47;;;2.00;99.90;;;1.66;100.00;100009.78;4969394;28;20224;-76
2021/12/06 03:06:59;;;;;;;0.10;0.10;;;2.00;99.90;;;1.63;100.00;100005.34;4952296;28;20196;-75
2021/12/06 03:09:36;;;;;;;0.20;0.20;;;1.90;99.90;;;1.64;100.00;100004.50;4950873;28;20208;-75
2021/12/06 03:12:11;;;;;;;0.10;0.10;;;1.90;99.90;;;1.62;100.00;100007.88;4955213;28;20227;-75
2021/12/06 03:14:45;;;;;;;0.20;0.20;;;1.90;99.90;;;1.62;100.00;100013.09;4951646;28;20243;-75
2021/12/06 03:17:19;;;;;;;0.10;0.10;;;1.90;99.90;;;1.64;100.00;100021.88;4968348;28;20212;-75
2021/12/06 03:19:50;;;;;;;0.10;0.10;;;1.90;99.90;;;1.60;100.00;100016.53;4957236;28;20224;-75
2021/12/06 03:22:20;;;;;;;0.10;0.10;;;1.80;99.90;;;1.58;100.00;100027.75;4965249;28;20251;-77
2021/12/06 03:24:53;;;;;;;0.10;0.10;;;1.90;99.90;;;1.53;100.00;100029.28;4939111;28;20216;-75
2021/12/06 03:27:21;;;;;;;0.10;0.10;;;1.80;99.90;;;1.54;100.00;100031.06;4958499;28;20201;-75
2021/12/06 03:29:53;;;;;;;0.10;0.10;;;1.80;99.90;;;1.54;100.00;100031.06;4955424;28;20729;-76
2021/12/06 03:32:21;;;;;;;0.10;0.10;;;1.90;99.90;;;1.57;100.00;100041.59;4949304;28;20236;-76
2021/12/06 03:34:49;;;;;;;0.10;0.10;;;1.90;99.90;;;1.52;100.00;100043.13;4945747;28;20220;-76
2021/12/06 03:37:17;;;;;;;0.10;0.10;;;1.80;99.90;;;1.45;100.00;100033.31;4921615;28;20215;-75
2021/12/06 03:39:48;;;;;;;0.10;0.10;;;1.80;99.90;;;1.45;100.00;100036.81;4956269;28;20208;-76
2021/12/06 03:42:25;;;;;;;0.10;0.10;;;1.80;99.90;;;1.41;100.00;100037.50;4965810;28;20228;-75
2021/12/06 03:44:54;;;;;;;0.10;0.10;;;1.70;99.90;;;1.41;100.00;100047.03;4951127;28;20344;-76
2021/12/06 03:47:28;;;;;;;0.10;0.10;;;1.80;99.90;;;1.44;100.00;100061.09;4960438;28;20223;-75
2021/12/06 03:49:58;;;;;;;0.20;0.20;;;1.70;99.90;;;1.47;100.00;100069.00;4955074;28;20204;-75
2021/12/06 03:52:28;;;;;;;0.10;0.10;;;1.70;99.90;;;1.48;100.00;100067.28;4942816;28;20216;-77
2021/12/06 03:54:59;;;;;;;0.10;0.10;;;1.80;99.90;;;1.51;100.00;100073.53;4952543;28;20219;-75
2021/12/06 03:57:28;;;;;;;0.10;0.10;;;1.80;99.90;;;1.54;100.00;100078.84;4940435;28;20201;-75
2021/12/06 03:59:56;;;;;;;0.10;0.10;;;1.80;99.90;;;1.55;100.00;100091.06;4937192;28;20200;-76
2021/12/06 04:02:30;;;;;;;0.10;0.10;;;1.90;99.90;;;1.59;100.00;100087.75;4958058;28;20224;-75
2021/12/06 04:04:58;;;;;;;0.10;0.10;;;1.90;99.90;;;1.56;100.00;100079.81;4958811;28;20221;-75
2021/12/06 04:07:30;;;;;;;0.10;0.10;;;1.80;99.90;;;1.54;100.00;100080.56;4972623;28;20220;-75
2021/12/06 04:09:58;;;;;;;0.22;0.22;;;1.90;99.90;;;1.56;100.00;100092.81;4951981;28;20211;-75
2021/12/06 04:12:27;;;;;;;0.10;0.10;;;1.90;99.90;;;1.56;100.00;100103.25;4938471;28;20225;-75
2021/12/06 04:14:56;;;;;;;0.10;0.10;;;1.90;99.90;;;1.58;100.00;100100.72;4956471;28;20217;-75
2021/12/06 04:17:25;;;;;;;0.10;0.10;;;1.90;99.90;;;1.62;100.00;100118.25;4939860;28;20212;-75
2021/12/06 04:19:53;;;;;;;0.20;0.20;;;1.90;99.90;;;1.62;100.00;100117.34;4968890;28;20212;-75
2021/12/06 04:22:22;;;;;;;0.10;0.10;;;1.90;99.90;;;1.63;100.00;100111.31;4941125;28;20251;-76
2021/12/06 04:24:51;;;;;;;0.10;0.10;;;1.90;99.90;;;1.64;100.00;100119.19;4969520;28;20698;-75
2021/12/06 04:27:21;;;;;;;0.10;0.10;;;2.00;99.90;;;1.65;100.00;100125.28;4953388;28;20213;-77
2021/12/06 04:29:52;;;;;;;0.10;0.10;;;2.00;99.90;;;1.64;100.00;100123.50;4937211;28;20205;-76
2021/12/06 04:32:26;;;;;;;0.10;0.10;;;1.90;99.90;;;1.65;100.00;100122.69;4949966;28;20232;-75
2021/12/06 04:34:55;;;;;;;0.10;0.10;;;1.90;99.90;;;1.65;100.00;100120.97;4967429;28;20212;-76
2021/12/06 04:37:24;;;;;;;0.10;0.10;;;2.00;99.90;;;1.65;100.00;100120.97;4950995;28;20205;-75
2021/12/06 04:39:55;;;;;;;0.10;0.10;;;1.90;99.90;;;1.63;100.00;100119.13;4935016;28;20292;-75
2021/12/06 04:42:24;;;;;;;0.13;0.13;;;1.90;99.90;;;1.66;100.00;100132.28;4971190;28;20604;-75
2021/12/06 04:44:52;;;;;;;0.10;0.10;;;1.90;99.90;;;1.68;100.00;100136.72;4976876;28;20220;-76
2021/12/06 04:47:20;;;;;;;0.10;0.10;;;2.00;99.90;;;1.71;100.00;100149.00;4959009;28;20208;-75
2021/12/06 04:49:50;;;;;;;0.10;0.10;;;2.00;99.90;;;1.69;100.00;100148.03;4944020;28;20205;-76
2021/12/06 04:52:19;;;;;;;0.10;0.10;;;2.00;99.90;;;1.65;100.00;100152.25;4975110;28;20229;-76
2021/12/06 04:54:56;;;;;;;0.10;0.10;;;1.90;99.90;;;1.58;100.00;100150.22;4976863;28;20201;-75
2021/12/06 04:57:42;;;;;;;0.10;0.10;;;1.90;99.90;;;1.61;100.00;100152.94;4958300;28;20200;-75
2021/12/06 05:00:14;;;;;;;0.10;0.10;;;1.90;99.90;;;1.61;100.00;100160.78;4973972;28;20215;-76
2021/12/06 05:02:45;;;;;;;0.10;0.10;;;1.90;99.90;;;1.59;100.00;100165.03;4932145;28;20617;-76
2021/12/06 05:05:27;;;;;;;0.10;0.10;;;1.90;99.90;;;1.60;100.00;100183.34;4962516;28;20227;-75
2021/12/06 05:08:07;;;;;;;0.10;0.10;;;1.90;99.90;;;1.66;100.00;100193.13;4946790;28;20204;-76
2021/12/06 05:10:36;;;;;;;0.10;0.10;;;1.90;99.90;;;1.65;100.00;100188.75;4959481;28;20216;-76
2021/12/06 05:13:06;;;;;;;0.10;0.10;;;2.00;99.90;;;1.69;100.00;100194.97;4950469;28;20232;-76
2021/12/06 05:15:34;;;;;;;0.10;0.10;;;2.00;99.90;;;1.71;100.00;100198.53;4984360;28;20208;-76
2021/12/06 05:18:05;;;;;;;0.10;0.10;;;5.20;99.90;;;1.68;100.00;100195.78;4943619;28;20209;-76
2021/12/06 05:20:34;;;;;;;0.10;0.10;;;2.00;99.90;;;1.63;100.00;100189.50;4974356;28;20221;-76
2021/12/06 05:23:05;;;;;;;0.10;0.10;;;1.90;99.90;;;1.61;100.00;100194.66;4971817;28;20244;-76
2021/12/06 05:25:33;;;;;;;0.10;0.10;;;1.90;99.90;;;1.60;100.00;100198.97;4942763;28;20220;-75
2021/12/06 05:28:01;;;;;;;0.10;0.10;;;1.90;99.90;;;1.60;100.00;100200.69;4966672;28;20212;-75
2021/12/06 05:30:31;;;;;;;0.10;0.10;;;1.90;99.90;;;1.61;100.00;100199.88;4955006;28;20204;-76
2021/12/06 05:33:01;;;;;;;0.10;0.10;;;2.00;99.90;;;1.59;100.00;100202.41;4942731;28;20232;-76
2021/12/06 05:35:29;;;;;;;0.10;0.10;;;1.90;99.90;;;1.62;100.00;100208.56;4940371;28;20216;-76
2021/12/06 05:37:59;;;;;;;0.10;0.10;;;1.90;99.90;;;1.62;100.00;100211.19;4966911;28;20209;-75
2021/12/06 05:40:34;;;;;;;0.10;0.10;;;1.90;99.90;;;1.65;100.00;100220.03;4940095;28;20216;-75
2021/12/06 05:43:04;;;;;;;0.10;0.10;;;2.00;99.90;;;1.60;100.00;100212.00;4971860;28;20247;-76
2021/12/06 05:45:33;;;;;;;0.10;0.10;;;1.90;99.90;;;1.59;100.00;100225.88;4962329;28;20228;-74
2021/12/06 05:48:01;;;;;;;0.10;0.10;;;1.90;99.90;;;1.61;100.00;100236.34;4969941;28;20208;-76
2021/12/06 05:50:29;;;;;;;0.10;0.10;;;2.00;99.90;;;1.60;100.00;100245.00;4954955;28;20251;-76
2021/12/06 05:52:58;;;;;;;0.10;0.10;;;1.90;99.90;;;1.60;100.00;100253.72;4954401;28;20223;-76
2021/12/06 05:55:27;;;;;;;0.10;0.10;;;1.90;99.90;;;1.57;100.00;100258.78;4958150;28;20212;-77
2021/12/06 05:58:03;;;;;;;0.10;0.10;;;1.90;99.90;;;1.54;100.00;100260.38;4982735;28;20220;-76
2021/12/06 06:00:32;;;;;;;0.10;0.10;;;1.90;99.90;;;1.53;100.00;100266.41;4971074;28;20208;-76
2021/12/06 06:03:03;;;;;;;0.10;0.10;;;1.80;99.90;;;1.52;100.00;100277.66;4939126;28;20235;-75
2021/12/06 06:05:35;;;;;;;0.10;0.10;;;1.80;99.90;;;1.49;100.00;100281.03;4959870;28;20217;-77
2021/12/06 06:08:04;;;;;;;0.10;0.10;;;1.80;99.90;;;1.50;100.00;100289.75;4942839;28;20212;-78
2021/12/06 06:10:33;;;;;;;0.10;0.10;;;1.80;99.90;;;1.58;100.00;100293.56;4939917;28;20201;-77
2021/12/06 06:13:04;;;;;;;0.10;0.10;;;1.90;99.90;;;1.56;100.00;100298.72;4970068;28;20236;-76
2021/12/06 06:15:33;;;;;;;0.10;0.10;;;1.90;99.90;;;1.54;100.00;100308.19;4953135;28;20205;-77
2021/12/06 06:18:02;;;;;;;0.10;0.10;;;1.90;99.90;;;1.56;100.00;100308.25;4938738;28;20197;-76
2021/12/06 06:20:38;;;;;;;0.10;0.10;;;1.80;99.90;;;1.57;100.00;100310.91;4953740;28;20634;-75
2021/12/06 06:23:07;;;;;;;0.22;0.22;;;1.80;99.90;;;1.57;100.00;100316.13;5043050;22;20240;-83
2021/12/06 06:25:35;;;;;;;0.10;0.10;;;1.90;99.90;;;1.56;100.00;100323.88;5017694;28;20241;-83
2021/12/06 06:28:05;;;;;;;0.10;0.10;;;1.90;99.90;;;1.58;100.00;100332.66;5000891;28;20214;-83
2021/12/06 06:30:34;;;;;;;0.10;0.10;;;1.80;99.90;;;1.60;100.00;100339.72;5031170;28;20203;-83
2021/12/06 06:33:03;;;;;;;0.10;0.10;;;1.90;99.90;;;1.65;100.00;100342.53;5014598;28;20230;-84
2021/12/06 06:35:31;;;;;;;0.10;0.10;;;1.90;99.90;;;1.64;100.00;100338.13;4999639;28;20211;-84
2021/12/06 06:38:00;;;;;;;0.10;0.10;;;1.90;99.90;;;1.62;100.00;100344.09;4996982;28;20200;-83
2021/12/06 06:40:29;;;;;;;0.40;0.40;;;1.90;99.90;;;1.62;100.00;100349.31;4997955;28;20214;-83
2021/12/06 06:42:58;;;;;;;0.10;0.10;;;2.00;99.90;;;1.69;100.00;100361.78;4996660;28;20222;-83
2021/12/06 06:45:27;;;;;;;0.10;0.10;;;2.00;99.90;;;1.65;100.00;100358.16;5002402;28;20242;-83
2021/12/06 06:47:58;;;;;;;0.10;0.10;;;1.90;99.90;;;1.66;100.00;100357.34;5003049;28;20195;-83
2021/12/06 06:50:27;;;;;;;0.10;0.10;;;2.00;99.90;;;1.66;100.00;100364.25;5005467;28;20211;-83
2021/12/06 06:52:56;;;;;;;0.10;0.10;;;1.90;99.90;;;1.67;100.00;100364.34;4982294;28;20556;-83
2021/12/06 06:55:24;;;;;;;0.10;0.10;;;1.90;99.90;;;1.67;100.00;100361.72;5004135;28;20210;-83
2021/12/06 06:57:53;;;;;;;0.10;0.10;;;2.00;99.90;;;1.72;100.00;100369.75;5008139;28;20582;-83
2021/12/06 07:00:29;;;;;;;0.10;0.10;;;2.10;99.90;;;1.71;100.00;100370.56;4985831;28;20195;-84
2021/12/06 07:03:14;;;;;;;0.10;0.10;;;2.00;99.90;;;1.81;100.00;100384.06;4999804;28;20237;-82
2021/12/06 07:05:44;;;;;;;0.10;0.10;;;2.10;99.90;;;1.79;100.00;100375.28;5018781;28;20223;-83
2021/12/06 07:08:14;;;;;;;0.15;0.15;;;2.10;99.90;;;1.75;100.00;100368.16;5002519;28;20199;-82
2021/12/06 07:10:45;;;;;;;0.10;0.10;;;2.00;99.90;;;1.77;100.00;100389.09;5002911;28;20441;-83
2021/12/06 07:13:14;;;;;;;0.10;0.10;;;2.10;99.90;;;1.73;100.00;100382.84;4986650;28;20246;-84
2021/12/06 07:15:51;;;;;;;0.10;0.10;;;2.00;99.90;;;1.74;100.00;100386.34;5039395;28;20210;-83
2021/12/06 07:18:20;;;;;;;0.20;0.20;;;2.00;99.90;;;1.75;100.00;100395.94;5020899;28;20234;-83
2021/12/06 07:20:48;;;;;;;0.10;0.10;;;2.00;99.90;;;1.76;100.00;100400.34;5020962;28;20211;-83
2021/12/06 07:23:16;;;;;;;0.20;0.20;;;2.10;99.90;;;1.79;100.00;100406.56;5020829;28;20820;-83
2021/12/06 07:25:44;;;;;;;0.88;0.88;;;2.10;99.90;;;1.77;100.00;100409.94;5000877;28;20235;-83
2021/12/06 07:28:14;;;;;;;0.10;0.10;;;2.10;99.90;;;1.79;100.00;100416.13;5002564;28;20207;-83
2021/12/06 07:30:42;;;;;;;0.10;0.10;;;2.10;99.90;;;1.79;100.00;100413.50;4969703;28;20215;-83
2021/12/06 07:33:11;;;;;;;0.10;0.10;;;2.10;99.90;;;1.83;100.00;100420.63;4986023;28;20231;-83
2021/12/06 07:35:44;;;;;;;0.10;0.10;;;2.10;99.90;;;1.82;100.00;100429.28;4988853;28;20207;-83
2021/12/06 07:38:13;;;;;;;0.10;0.10;;;2.10;99.90;;;1.83;100.00;100439.78;5005228;28;20676;-83
2021/12/06 07:40:41;;;;;;;0.20;0.20;;;2.10;99.90;;;1.81;100.00;100444.03;5004513;28;20214;-83
2021/12/06 07:43:09;;;;;;;0.10;0.10;;;2.10;99.90;;;1.81;100.00;100438.81;5015135;28;20227;-82
2021/12/06 07:45:37;;;;;;;0.20;0.20;;;2.10;99.90;;;1.83;100.00;100439.78;4998495;28;20219;-84
2021/12/06 07:48:06;;;;;;;0.10;0.10;;;2.10;99.90;;;1.86;100.00;100447.75;4970777;28;20199;-84
2021/12/06 07:50:36;;;;;;;0.10;0.10;;;2.10;99.90;;;1.89;100.00;100452.19;4967710;28;20207;-83
2021/12/06 07:53:04;;;;;;;0.10;0.10;;;2.20;99.90;;;1.89;100.00;100453.09;4983309;28;20226;-83
2021/12/06 07:55:34;;;;;;;0.10;0.10;;;2.20;99.90;;;1.91;100.00;100461.88;4999844;28;20206;-83
2021/12/06 07:58:06;;;;;;;0.10;0.10;;;2.20;99.90;;;1.93;100.00;100462.81;4974788;28;20203;-83
2021/12/06 08:00:42;;;;;;;0.10;0.10;;;2.20;99.90;;;1.94;100.00;100461.09;4983059;28;20222;-83
2021/12/06 08:03:10;;;;;;;0.10;0.10;;;2.30;99.90;;;1.96;100.00;100462.06;5010791;28;20226;-83
2021/12/06 08:05:43;;;;;;;0.10;0.10;;;2.30;99.90;;;2.01;100.00;100465.75;4999101;28;20223;-83
2021/12/06 08:08:15;;;;;;;0.10;0.10;;;2.30;99.90;;;2.03;100.00;100463.22;4999230;28;20210;-83
2021/12/06 08:10:58;;;;;;;0.10;0.10;;;2.30;99.90;;;2.01;100.00;100464.88;5000816;28;20227;-83
2021/12/06 08:13:32;;;;;;;0.10;0.10;;;2.30;99.90;;;1.99;100.00;100462.19;4995156;28;20222;-83
2021/12/06 08:16:13;;;;;;;0.10;0.10;;;2.30;99.90;;;1.97;100.00;100458.63;5004984;28;20209;-82
2021/12/06 08:18:44;;;;;;;0.10;0.10;;;2.30;99.90;;;1.98;100.00;100468.25;4997908;28;20217;-83
2021/12/06 08:21:15;;;;;;;0.10;0.10;;;2.30;99.90;;;2.01;100.00;100467.47;4979881;28;20222;-83
2021/12/06 08:23:44;;;;;;;0.20;0.20;;;2.30;99.90;;;2.02;100.00;100484.91;4993894;28;20711;-84
2021/12/06 08:26:13;;;;;;;0.10;0.10;;;2.40;99.90;;;2.04;100.00;100476.34;4982904;28;20223;-84
2021/12/06 08:28:42;;;;;;;0.10;0.10;;;2.40;99.90;;;2.03;100.00;100486.69;4981563;28;20203;-84
2021/12/06 08:31:12;;;;;;;0.10;0.10;;;2.30;99.90;;;2.04;100.00;100489.38;5002513;28;20676;-84
2021/12/06 08:33:40;;;;;;;0.10;0.10;;;2.30;99.90;;;2.05;100.00;100485.94;4983247;28;20222;-84
2021/12/06 08:36:11;;;;;;;0.10;0.10;;;2.40;99.90;;;2.10;100.00;100489.66;4999046;28;20210;-84
2021/12/06 08:38:40;;;;;;;0.10;0.10;;;2.40;99.90;;;2.18;100.00;100498.69;5016217;28;20195;-84
2021/12/06 08:41:14;;;;;;;0.08;0.08;;;2.50;99.90;;;2.29;100.00;100512.19;5005202;28;20214;-83
2021/12/06 08:43:46;;;;;;;0.10;0.10;;;2.60;99.90;;;2.34;100.00;100515.91;4989835;28;20235;-84
2021/12/06 08:46:23;;;;;;;0.10;0.10;;;2.70;99.90;;;2.41;100.00;100524.88;4999498;28;20231;-84
2021/12/06 08:48:52;;;;;;;0.75;0.75;;;2.80;99.90;;;2.45;100.00;100516.34;4984836;28;20212;-81
2021/12/06 08:51:38;;;;;;;0.10;0.10;;;2.90;99.90;;;2.45;100.00;100521.59;4988983;28;20344;-81
2021/12/06 08:54:09;;;;;;;0.10;0.10;;;3.00;99.90;;;2.46;100.00;100520.75;5012483;28;20207;-81
2021/12/06 08:56:38;;;;;;;0.10;0.10;;;2.90;99.90;;;2.51;100.00;100524.44;4986547;28;20222;-81
2021/12/06 08:59:07;;;;;;;0.08;0.08;;;2.90;99.90;;;2.53;100.00;100528.91;4991960;28;20200;-81
2021/12/06 09:01:39;;;;;;;0.10;0.10;;;2.90;99.90;;;2.54;100.00;100528.09;4998377;28;20573;-81
2021/12/06 09:04:33;;;;;;;0.10;0.10;;;2.90;99.90;;;2.51;100.00;100527.94;4985039;28;20207;-81
2021/12/06 09:07:10;;;;;;;0.10;0.10;;;2.80;99.90;;;2.49;100.00;100523.50;4992065;28;20625;-82
2021/12/06 09:09:49;;;;;;;0.10;0.10;;;2.80;99.90;;;2.49;100.00;100519.16;4988392;28;20217;-82
2021/12/06 09:12:26;;;;;;;0.10;0.10;;;2.80;99.90;;;2.50;100.00;100515.72;4996696;28;20227;-82
2021/12/06 09:15:03;;;;;;;0.10;0.10;;;2.80;99.90;;;2.49;100.00;100515.66;5009591;28;20221;-82
2021/12/06 09:17:34;;;;;;;0.10;0.10;;;2.90;99.90;;;2.48;100.00;100519.09;4998558;28;20207;-82
2021/12/06 09:20:07;;;;;;;0.10;0.10;;;2.80;99.90;;;2.45;100.00;100517.25;4986969;28;20253;-82
2021/12/06 09:22:36;;;;;;;0.10;0.10;;;2.80;99.90;;;2.49;100.00;100515.66;4985051;28;20242;-83
2021/12/06 09:25:08;;;;;;;1.15;1.00;;;2.80;99.90;;;2.54;100.00;100511.53;4986007;28;20212;-82
2021/12/06 09:27:38;;;;;;;0.10;0.10;;;2.80;99.90;;;2.58;100.00;100514.34;5019454;28;20573;-83
2021/12/06 09:30:14;;;;;;;0.10;0.10;;;2.90;99.90;;;2.63;100.00;100525.00;4993087;28;20203;-83
2021/12/06 09:32:44;;;;;;;0.10;0.10;;;3.00;99.90;;;2.69;100.00;100527.88;5018834;28;20223;-82
2021/12/06 09:35:17;;;;;;;0.10;0.10;;;3.00;99.90;;;2.80;100.00;100541.38;5022274;28;20198;-82
2021/12/06 09:37:46;;;;;;;0.10;0.10;;;3.20;99.90;;;2.91;100.00;100550.53;5000239;28;20203;-82
2021/12/06 09:40:16;;;;;;;0.10;0.10;;;3.30;99.90;;;2.99;100.00;100558.69;4989028;28;20202;-82
2021/12/06 09:42:46;;;;;;;0.10;0.10;;;3.30;99.90;;;3.02;100.00;100556.22;5008539;28;20227;-83
2021/12/06 09:45:22;;;;;;;0.10;0.10;;;3.30;99.90;;;3.07;100.00;100562.50;4995185;28;20210;-83
2021/12/06 09:47:53;;;;;;;0.10;0.10;;;3.30;99.90;;;3.11;100.00;100553.97;5021936;28;20222;-82
2021/12/06 09:50:32;;;;;;;0.10;0.10;;;3.40;99.90;;;3.10;100.00;100549.56;4995978;28;20205;-82
2021/12/06 09:53:08;;;;;;;0.10;0.10;;;3.40;99.90;;;3.23;100.00;100567.53;5019286;28;20227;-82
2021/12/06 09:55:38;;;;;;;0.10;0.10;;;3.40;99.90;;;3.30;100.00;100566.94;5019465;28;20214;-82
2021/12/06 09:58:06;;;;;;;0.10;0.10;;;3.50;99.90;;;3.40;100.00;100576.03;5016143;28;20781;-82
2021/12/06 10:00:42;;;;;;;0.10;0.10;;;3.60;99.90;;;3.45;100.00;100571.91;5034202;28;20215;-82
2021/12/06 10:03:15;;;;;;;0.10;0.10;;;3.60;99.90;;;3.42;100.00;100551.75;4992401;28;20242;-82
2021/12/06 10:05:45;;;;;;;0.10;0.10;;;3.70;99.90;;;3.55;100.00;100553.13;5006550;28;20211;-82
2021/12/06 10:08:13;;;;;;;0.10;0.10;;;3.80;99.90;;;3.57;100.00;100545.34;4999137;28;20204;-82
2021/12/06 10:10:42;;;;;;;0.00;0.00;;;3.80;99.90;;;3.69;100.00;100551.03;4978302;28;20199;-82
2021/12/06 10:13:13;;;;;;;0.10;0.10;;;3.80;99.90;;;3.66;100.00;100541.34;5041669;28;20223;-82
2021/12/06 10:15:43;;;;;;;0.00;0.00;;;;;;;3.82;100.00;100550.66;4976835;28;20200;-83
2021/12/06 10:18:16;;;;;;;0.03;0.03;;;;;;;3.86;100.00;100547.34;5015934;28;20199;-82
2021/12/06 10:20:47;;;;;;;0.10;0.10;;;7.00;99.90;;;3.89;100.00;100549.16;5014018;28;20221;-82
2021/12/06 10:23:20;;;;;;;0.10;0.10;;;4.10;99.90;;;3.81;100.00;100544.53;5017415;28;20250;-83
2021/12/06 10:25:52;;;;;;;0.10;0.10;;;4.10;99.90;;;3.88;100.00;100550.00;5020950;28;20218;-82
2021/12/06 10:28:28;;;;;;;0.10;0.10;;;4.20;99.90;;;4.06;100.00;100555.97;5014244;28;20203;-82
2021/12/06 10:31:02;;;;;;;0.10;0.10;;;4.30;99.90;;;4.05;100.00;100538.47;5046473;28;20210;-83
2021/12/06 10:33:41;;;;;;;0.00;0.00;;;4.30;99.90;;;4.08;100.00;100536.84;5003009;28;20232;-82
2021/12/06 10:36:15;;;;;;;0.03;0.03;;;4.30;99.90;;;4.13;100.00;100544.88;5006560;28;20199;-83
2021/12/06 10:38:53;;;;;;;0.10;0.10;;;4.40;99.90;;;4.15;100.00;100540.59;4981569;28;20650;-82
2021/12/06 10:41:26;;;;;;;0.00;0.00;;;4.40;99.90;;;4.27;100.00;100548.88;5007116;28;20211;-82
2021/12/06 10:44:03;;;;;;;0.10;0.10;;;4.50;99.90;;;4.37;100.00;100545.75;4999920;28;20231;-82
2021/12/06 10:46:34;;;;;;;0.10;0.10;;;4.60;99.90;;;4.43;100.00;100545.97;5002200;28;20227;-82
2021/12/06 10:49:08;;;;;;;0.10;0.10;;;4.60;99.90;;;4.31;100.00;100529.84;5006334;28;20207;-82
2021/12/06 10:51:37;;;;;;;0.00;0.00;;;4.60;99.90;;;4.33;100.00;100527.28;4967774;28;20211;-82
2021/12/06 10:54:20;;;;;;;0.10;0.10;;;4.50;99.90;;;4.26;100.00;100513.06;4991086;28;20202;-82